sensor_id;sensor_type;location;lat;lon;timestamp;P1;durP1;ratioP1;P2;durP2;ratioP2
7845;SDS011;3968;51.424;6.788;2022-09-27T00:02:13;5.73;;;2.23;;
7845;SDS011;3968;51.424;6.788;2022-09-27T00:04:38;6.77;;;2.50;;
7845;SDS011;3968;51.424;6.788;2022-09-27T00:07:04;6.80;;;2.80;;
7845;SDS011;3968;51.424;6.788;2022-09-27T00:09:31;6.27;;;2.87;;
7845;SDS011;3968;51.424;6.788;2022-09-27T00:11:57;7.23;;;2.37;;
7845;SDS011;3968;51.424;6.788;2022-09-27T00:14:22;5.07;;;2.37;;
7845;SDS011;3968;51.424;6.788;2022-09-27T00:16:48;7.00;;;2.73;;
7845;SDS011;3968;51.424;6.788;2022-09-27T00:19:17;7.37;;;2.53;;
7845;SDS011;3968;51.424;6.788;2022-09-27T00:21:46;7.10;;;2.70;;
7845;SDS011;3968;51.424;6.788;2022-09-27T00:24:12;4.60;;;2.07;;
7845;SDS011;3968;51.424;6.788;2022-09-27T00:26:39;9.83;;;3.43;;
7845;SDS011;3968;51.424;6.788;2022-09-27T00:29:05;20.57;;;6.47;;
7845;SDS011;3968;51.424;6.788;2022-09-27T00:31:31;25.37;;;8.83;;
7845;SDS011;3968;51.424;6.788;2022-09-27T00:33:58;23.37;;;8.20;;
7845;SDS011;3968;51.424;6.788;2022-09-27T00:36:26;25.63;;;9.53;;
7845;SDS011;3968;51.424;6.788;2022-09-27T00:38:53;31.73;;;9.73;;
7845;SDS011;3968;51.424;6.788;2022-09-27T00:41:24;27.10;;;10.30;;
7845;SDS011;3968;51.424;6.788;2022-09-27T00:43:56;27.00;;;9.70;;
7845;SDS011;3968;51.424;6.788;2022-09-27T00:46:27;31.50;;;11.00;;
7845;SDS011;3968;51.424;6.788;2022-09-27T00:49:08;27.23;;;8.83;;
7845;SDS011;3968;51.424;6.788;2022-09-27T00:51:58;33.80;;;13.87;;
7845;SDS011;3968;51.424;6.788;2022-09-27T00:54:28;36.37;;;13.33;;
7845;SDS011;3968;51.424;6.788;2022-09-27T00:56:55;34.20;;;11.03;;
7845;SDS011;3968;51.424;6.788;2022-09-27T00:59:25;29.90;;;10.63;;
7845;SDS011;3968;51.424;6.788;2022-09-27T01:01:57;21.33;;;9.53;;
7845;SDS011;3968;51.424;6.788;2022-09-27T01:04:24;16.97;;;9.13;;
7845;SDS011;3968;51.424;6.788;2022-09-27T01:06:51;13.13;;;6.20;;
7845;SDS011;3968;51.424;6.788;2022-09-27T01:09:17;23.33;;;7.00;;
7845;SDS011;3968;51.424;6.788;2022-09-27T01:11:47;23.57;;;7.07;;
7845;SDS011;3968;51.424;6.788;2022-09-27T01:25:02;11.17;;;5.93;;
7845;SDS011;3968;51.424;6.788;2022-09-27T01:33:04;9.93;;;5.23;;
7845;SDS011;3968;51.424;6.788;2022-09-27T01:35:39;7.27;;;4.03;;
7845;SDS011;3968;51.424;6.788;2022-09-27T01:41:25;7.70;;;4.17;;
7845;SDS011;3968;51.424;6.788;2022-09-27T01:44:06;7.53;;;4.37;;
7845;SDS011;3968;51.424;6.788;2022-09-27T01:46:42;15.57;;;6.53;;
7845;SDS011;3968;51.424;6.788;2022-09-27T01:49:16;6.77;;;3.90;;
7845;SDS011;3968;51.424;6.788;2022-09-27T01:51:47;11.20;;;5.80;;
7845;SDS011;3968;51.424;6.788;2022-09-27T01:54:47;9.77;;;5.27;;
7845;SDS011;3968;51.424;6.788;2022-09-27T01:57:26;9.60;;;4.13;;
7845;SDS011;3968;51.424;6.788;2022-09-27T02:00:01;10.70;;;4.37;;
7845;SDS011;3968;51.424;6.788;2022-09-27T02:02:31;11.57;;;4.37;;
7845;SDS011;3968;51.424;6.788;2022-09-27T02:05:01;10.40;;;5.43;;
7845;SDS011;3968;51.424;6.788;2022-09-27T02:08:03;8.40;;;5.10;;
7845;SDS011;3968;51.424;6.788;2022-09-27T02:10:33;14.87;;;7.70;;
7845;SDS011;3968;51.424;6.788;2022-09-27T02:13:20;15.33;;;9.03;;
7845;SDS011;3968;51.424;6.788;2022-09-27T02:18:56;10.57;;;4.70;;
7845;SDS011;3968;51.424;6.788;2022-09-27T02:24:21;7.00;;;4.13;;
7845;SDS011;3968;51.424;6.788;2022-09-27T02:27:17;11.10;;;6.23;;
7845;SDS011;3968;51.424;6.788;2022-09-27T02:30:07;7.83;;;3.70;;
7845;SDS011;3968;51.424;6.788;2022-09-27T02:32:38;13.53;;;5.57;;
7845;SDS011;3968;51.424;6.788;2022-09-27T02:35:09;10.10;;;3.93;;
7845;SDS011;3968;51.424;6.788;2022-09-27T02:37:37;11.00;;;5.17;;
7845;SDS011;3968;51.424;6.788;2022-09-27T02:40:02;12.73;;;5.73;;
7845;SDS011;3968;51.424;6.788;2022-09-27T02:42:29;10.60;;;4.30;;
7845;SDS011;3968;51.424;6.788;2022-09-27T02:44:56;9.60;;;4.33;;
7845;SDS011;3968;51.424;6.788;2022-09-27T02:55:45;12.03;;;5.70;;
7845;SDS011;3968;51.424;6.788;2022-09-27T03:01:30;7.47;;;5.17;;
7845;SDS011;3968;51.424;6.788;2022-09-27T03:06:28;7.87;;;4.63;;
7845;SDS011;3968;51.424;6.788;2022-09-27T03:08:56;10.87;;;6.30;;
7845;SDS011;3968;51.424;6.788;2022-09-27T03:11:21;14.93;;;6.97;;
7845;SDS011;3968;51.424;6.788;2022-09-27T03:13:47;14.43;;;7.57;;
7845;SDS011;3968;51.424;6.788;2022-09-27T03:16:13;18.50;;;9.97;;
7845;SDS011;3968;51.424;6.788;2022-09-27T03:18:40;22.87;;;11.93;;
7845;SDS011;3968;51.424;6.788;2022-09-27T03:21:06;18.97;;;10.77;;
7845;SDS011;3968;51.424;6.788;2022-09-27T03:23:31;22.40;;;10.70;;
7845;SDS011;3968;51.424;6.788;2022-09-27T03:25:57;23.67;;;10.10;;
7845;SDS011;3968;51.424;6.788;2022-09-27T03:28:23;15.10;;;7.23;;
7845;SDS011;3968;51.424;6.788;2022-09-27T03:30:49;17.63;;;7.87;;
7845;SDS011;3968;51.424;6.788;2022-09-27T03:33:15;16.07;;;5.90;;
7845;SDS011;3968;51.424;6.788;2022-09-27T03:35:41;10.70;;;5.57;;
7845;SDS011;3968;51.424;6.788;2022-09-27T03:38:07;10.13;;;4.43;;
7845;SDS011;3968;51.424;6.788;2022-09-27T03:40:34;10.23;;;4.67;;
7845;SDS011;3968;51.424;6.788;2022-09-27T03:43:00;8.87;;;4.30;;
7845;SDS011;3968;51.424;6.788;2022-09-27T03:45:26;6.13;;;3.60;;
7845;SDS011;3968;51.424;6.788;2022-09-27T03:47:51;7.20;;;3.47;;
7845;SDS011;3968;51.424;6.788;2022-09-27T03:50:17;8.83;;;3.90;;
7845;SDS011;3968;51.424;6.788;2022-09-27T03:52:42;7.37;;;3.30;;
7845;SDS011;3968;51.424;6.788;2022-09-27T03:55:09;6.97;;;3.10;;
7845;SDS011;3968;51.424;6.788;2022-09-27T03:57:35;7.17;;;3.27;;
7845;SDS011;3968;51.424;6.788;2022-09-27T04:00:02;4.80;;;2.80;;
7845;SDS011;3968;51.424;6.788;2022-09-27T04:02:28;8.37;;;3.20;;
7845;SDS011;3968;51.424;6.788;2022-09-27T04:04:54;4.67;;;2.90;;
7845;SDS011;3968;51.424;6.788;2022-09-27T04:07:20;5.17;;;2.63;;
7845;SDS011;3968;51.424;6.788;2022-09-27T04:09:45;5.40;;;2.90;;
7845;SDS011;3968;51.424;6.788;2022-09-27T04:12:12;8.10;;;3.20;;
7845;SDS011;3968;51.424;6.788;2022-09-27T04:14:37;7.07;;;3.00;;
7845;SDS011;3968;51.424;6.788;2022-09-27T04:17:03;6.77;;;2.70;;
7845;SDS011;3968;51.424;6.788;2022-09-27T04:19:29;5.93;;;2.63;;
7845;SDS011;3968;51.424;6.788;2022-09-27T04:21:54;9.80;;;2.70;;
7845;SDS011;3968;51.424;6.788;2022-09-27T04:24:23;7.13;;;2.83;;
7845;SDS011;3968;51.424;6.788;2022-09-27T04:26:49;8.50;;;3.10;;
7845;SDS011;3968;51.424;6.788;2022-09-27T04:29:15;9.70;;;2.83;;
7845;SDS011;3968;51.424;6.788;2022-09-27T04:31:41;8.13;;;2.80;;
7845;SDS011;3968;51.424;6.788;2022-09-27T04:34:08;8.53;;;2.67;;
7845;SDS011;3968;51.424;6.788;2022-09-27T04:36:34;8.57;;;2.63;;
7845;SDS011;3968;51.424;6.788;2022-09-27T04:39:02;7.30;;;2.93;;
7845;SDS011;3968;51.424;6.788;2022-09-27T04:41:30;5.83;;;2.33;;
7845;SDS011;3968;51.424;6.788;2022-09-27T04:43:56;5.87;;;2.30;;
7845;SDS011;3968;51.424;6.788;2022-09-27T04:46:25;4.53;;;1.93;;
7845;SDS011;3968;51.424;6.788;2022-09-27T04:48:55;6.10;;;2.30;;
7845;SDS011;3968;51.424;6.788;2022-09-27T04:51:22;8.53;;;2.50;;
7845;SDS011;3968;51.424;6.788;2022-09-27T04:53:47;8.00;;;2.13;;
7845;SDS011;3968;51.424;6.788;2022-09-27T04:56:13;5.50;;;2.43;;
7845;SDS011;3968;51.424;6.788;2022-09-27T04:58:39;6.10;;;2.43;;
7845;SDS011;3968;51.424;6.788;2022-09-27T05:01:05;6.00;;;2.13;;
7845;SDS011;3968;51.424;6.788;2022-09-27T05:03:32;5.07;;;2.03;;
7845;SDS011;3968;51.424;6.788;2022-09-27T05:05:58;8.20;;;2.20;;
7845;SDS011;3968;51.424;6.788;2022-09-27T05:08:24;9.30;;;2.50;;
7845;SDS011;3968;51.424;6.788;2022-09-27T05:10:51;8.77;;;2.30;;
7845;SDS011;3968;51.424;6.788;2022-09-27T05:13:18;5.47;;;1.93;;
7845;SDS011;3968;51.424;6.788;2022-09-27T05:15:44;4.90;;;2.00;;
7845;SDS011;3968;51.424;6.788;2022-09-27T05:18:10;5.10;;;1.57;;
7845;SDS011;3968;51.424;6.788;2022-09-27T05:20:36;5.23;;;1.90;;
7845;SDS011;3968;51.424;6.788;2022-09-27T05:23:02;6.70;;;1.90;;
7845;SDS011;3968;51.424;6.788;2022-09-27T05:25:29;4.93;;;2.00;;
7845;SDS011;3968;51.424;6.788;2022-09-27T05:27:56;5.20;;;1.70;;
7845;SDS011;3968;51.424;6.788;2022-09-27T05:30:22;6.40;;;2.00;;
7845;SDS011;3968;51.424;6.788;2022-09-27T05:32:49;4.53;;;1.53;;
7845;SDS011;3968;51.424;6.788;2022-09-27T05:35:15;3.77;;;1.80;;
7845;SDS011;3968;51.424;6.788;2022-09-27T05:37:51;4.60;;;1.60;;
7845;SDS011;3968;51.424;6.788;2022-09-27T05:40:18;6.90;;;2.13;;
7845;SDS011;3968;51.424;6.788;2022-09-27T05:42:43;4.77;;;2.07;;
7845;SDS011;3968;51.424;6.788;2022-09-27T05:45:09;7.23;;;2.23;;
7845;SDS011;3968;51.424;6.788;2022-09-27T05:47:34;5.33;;;1.90;;
7845;SDS011;3968;51.424;6.788;2022-09-27T05:50:00;5.03;;;1.83;;
7845;SDS011;3968;51.424;6.788;2022-09-27T05:52:26;4.30;;;1.70;;
7845;SDS011;3968;51.424;6.788;2022-09-27T05:54:51;4.07;;;2.00;;
7845;SDS011;3968;51.424;6.788;2022-09-27T05:57:17;7.23;;;2.00;;
7845;SDS011;3968;51.424;6.788;2022-09-27T05:59:43;5.73;;;1.87;;
7845;SDS011;3968;51.424;6.788;2022-09-27T06:02:11;4.03;;;1.93;;
7845;SDS011;3968;51.424;6.788;2022-09-27T06:04:37;4.10;;;1.90;;
7845;SDS011;3968;51.424;6.788;2022-09-27T06:07:03;7.63;;;2.03;;
7845;SDS011;3968;51.424;6.788;2022-09-27T06:09:28;5.87;;;1.83;;
7845;SDS011;3968;51.424;6.788;2022-09-27T06:11:54;6.93;;;1.87;;
7845;SDS011;3968;51.424;6.788;2022-09-27T06:14:20;5.87;;;1.90;;
7845;SDS011;3968;51.424;6.788;2022-09-27T06:16:46;6.60;;;1.73;;
7845;SDS011;3968;51.424;6.788;2022-09-27T06:19:12;2.93;;;1.83;;
7845;SDS011;3968;51.424;6.788;2022-09-27T06:21:37;5.83;;;2.10;;
7845;SDS011;3968;51.424;6.788;2022-09-27T06:24:03;3.00;;;1.80;;
7845;SDS011;3968;51.424;6.788;2022-09-27T06:26:29;4.73;;;1.80;;
7845;SDS011;3968;51.424;6.788;2022-09-27T06:28:54;4.73;;;2.20;;
7845;SDS011;3968;51.424;6.788;2022-09-27T06:31:21;2.53;;;1.43;;
7845;SDS011;3968;51.424;6.788;2022-09-27T06:33:47;4.87;;;1.83;;
7845;SDS011;3968;51.424;6.788;2022-09-27T06:36:13;4.37;;;1.60;;
7845;SDS011;3968;51.424;6.788;2022-09-27T06:38:39;5.47;;;1.90;;
7845;SDS011;3968;51.424;6.788;2022-09-27T06:41:05;4.30;;;1.63;;
7845;SDS011;3968;51.424;6.788;2022-09-27T06:43:31;3.20;;;1.60;;
7845;SDS011;3968;51.424;6.788;2022-09-27T06:46:01;5.17;;;1.60;;
7845;SDS011;3968;51.424;6.788;2022-09-27T06:48:31;7.57;;;1.57;;
7845;SDS011;3968;51.424;6.788;2022-09-27T06:50:58;4.00;;;1.40;;
7845;SDS011;3968;51.424;6.788;2022-09-27T06:53:24;5.80;;;2.07;;
7845;SDS011;3968;51.424;6.788;2022-09-27T06:55:50;5.53;;;1.40;;
7845;SDS011;3968;51.424;6.788;2022-09-27T06:58:16;1.50;;;1.13;;
7845;SDS011;3968;51.424;6.788;2022-09-27T07:01:01;3.67;;;1.30;;
7845;SDS011;3968;51.424;6.788;2022-09-27T07:03:27;4.93;;;1.20;;
7845;SDS011;3968;51.424;6.788;2022-09-27T07:05:59;6.63;;;1.60;;
7845;SDS011;3968;51.424;6.788;2022-09-27T07:08:29;7.57;;;1.63;;
7845;SDS011;3968;51.424;6.788;2022-09-27T07:10:55;3.13;;;1.50;;
7845;SDS011;3968;51.424;6.788;2022-09-27T07:13:25;1.93;;;1.20;;
7845;SDS011;3968;51.424;6.788;2022-09-27T07:15:58;2.00;;;1.30;;
7845;SDS011;3968;51.424;6.788;2022-09-27T07:18:24;2.83;;;1.37;;
7845;SDS011;3968;51.424;6.788;2022-09-27T07:20:51;8.40;;;1.50;;
7845;SDS011;3968;51.424;6.788;2022-09-27T07:23:17;3.50;;;1.87;;
7845;SDS011;3968;51.424;6.788;2022-09-27T07:25:43;4.60;;;1.87;;
7845;SDS011;3968;51.424;6.788;2022-09-27T07:28:12;8.00;;;2.20;;
7845;SDS011;3968;51.424;6.788;2022-09-27T07:30:39;7.53;;;1.87;;
7845;SDS011;3968;51.424;6.788;2022-09-27T07:33:06;4.40;;;1.90;;
7845;SDS011;3968;51.424;6.788;2022-09-27T07:35:33;3.33;;;1.53;;
7845;SDS011;3968;51.424;6.788;2022-09-27T07:38:04;10.00;;;1.70;;
7845;SDS011;3968;51.424;6.788;2022-09-27T07:40:32;5.17;;;1.60;;
7845;SDS011;3968;51.424;6.788;2022-09-27T07:43:00;3.20;;;1.40;;
7845;SDS011;3968;51.424;6.788;2022-09-27T07:45:26;3.20;;;1.23;;
7845;SDS011;3968;51.424;6.788;2022-09-27T07:47:52;3.20;;;1.70;;
7845;SDS011;3968;51.424;6.788;2022-09-27T07:50:18;3.53;;;1.30;;
7845;SDS011;3968;51.424;6.788;2022-09-27T07:52:45;5.67;;;1.67;;
7845;SDS011;3968;51.424;6.788;2022-09-27T07:55:15;2.03;;;1.20;;
7845;SDS011;3968;51.424;6.788;2022-09-27T07:57:42;2.57;;;1.50;;
7845;SDS011;3968;51.424;6.788;2022-09-27T08:00:12;2.07;;;1.10;;
7845;SDS011;3968;51.424;6.788;2022-09-27T08:02:43;1.80;;;1.10;;
7845;SDS011;3968;51.424;6.788;2022-09-27T08:05:09;3.67;;;1.67;;
7845;SDS011;3968;51.424;6.788;2022-09-27T08:07:36;7.33;;;1.80;;
7845;SDS011;3968;51.424;6.788;2022-09-27T08:10:03;4.23;;;1.50;;
7845;SDS011;3968;51.424;6.788;2022-09-27T08:12:30;2.97;;;1.47;;
7845;SDS011;3968;51.424;6.788;2022-09-27T08:14:56;2.57;;;1.30;;
7845;SDS011;3968;51.424;6.788;2022-09-27T08:17:25;2.40;;;1.30;;
7845;SDS011;3968;51.424;6.788;2022-09-27T08:19:51;3.93;;;1.20;;
7845;SDS011;3968;51.424;6.788;2022-09-27T08:22:17;4.90;;;1.47;;
7845;SDS011;3968;51.424;6.788;2022-09-27T08:24:45;7.17;;;1.67;;
7845;SDS011;3968;51.424;6.788;2022-09-27T08:27:11;2.97;;;1.30;;
7845;SDS011;3968;51.424;6.788;2022-09-27T08:29:37;6.17;;;1.93;;
7845;SDS011;3968;51.424;6.788;2022-09-27T08:32:06;3.73;;;1.67;;
7845;SDS011;3968;51.424;6.788;2022-09-27T08:34:32;2.47;;;1.30;;
7845;SDS011;3968;51.424;6.788;2022-09-27T08:36:57;227.20;;;21.07;;
7845;SDS011;3968;51.424;6.788;2022-09-27T08:39:24;20.93;;;3.17;;
7845;SDS011;3968;51.424;6.788;2022-09-27T08:42:04;2.77;;;1.10;;
7845;SDS011;3968;51.424;6.788;2022-09-27T08:44:57;4.63;;;1.33;;
7845;SDS011;3968;51.424;6.788;2022-09-27T08:52:46;3.60;;;1.90;;
7845;SDS011;3968;51.424;6.788;2022-09-27T08:55:29;2.90;;;1.60;;
7845;SDS011;3968;51.424;6.788;2022-09-27T08:58:10;3.17;;;1.50;;
7845;SDS011;3968;51.424;6.788;2022-09-27T09:00:43;3.33;;;1.40;;
7845;SDS011;3968;51.424;6.788;2022-09-27T09:03:16;50.07;;;6.87;;
7845;SDS011;3968;51.424;6.788;2022-09-27T09:05:54;3.67;;;1.50;;
7845;SDS011;3968;51.424;6.788;2022-09-27T09:11:10;4.33;;;1.50;;
7845;SDS011;3968;51.424;6.788;2022-09-27T09:25:46;2.00;;;1.57;;
7845;SDS011;3968;51.424;6.788;2022-09-27T09:28:49;1.70;;;1.60;;
7845;SDS011;3968;51.424;6.788;2022-09-27T09:31:41;3.97;;;1.90;;
7845;SDS011;3968;51.424;6.788;2022-09-27T09:34:33;3.57;;;2.13;;
7845;SDS011;3968;51.424;6.788;2022-09-27T09:37:17;4.40;;;1.50;;
7845;SDS011;3968;51.424;6.788;2022-09-27T09:39:56;3.70;;;1.83;;
7845;SDS011;3968;51.424;6.788;2022-09-27T09:42:49;3.53;;;2.20;;
7845;SDS011;3968;51.424;6.788;2022-09-27T09:45:28;4.40;;;2.83;;
7845;SDS011;3968;51.424;6.788;2022-09-27T09:50:41;5.17;;;2.10;;
7845;SDS011;3968;51.424;6.788;2022-09-27T09:53:17;5.03;;;2.10;;
7845;SDS011;3968;51.424;6.788;2022-09-27T09:56:01;7.27;;;2.70;;
7845;SDS011;3968;51.424;6.788;2022-09-27T09:58:34;5.10;;;2.53;;
7845;SDS011;3968;51.424;6.788;2022-09-27T10:01:48;3.73;;;2.27;;
7845;SDS011;3968;51.424;6.788;2022-09-27T10:04:03;3.50;;;2.40;;
7845;SDS011;3968;51.424;6.788;2022-09-27T10:06:29;3.43;;;2.70;;
7845;SDS011;3968;51.424;6.788;2022-09-27T10:08:55;2.87;;;2.30;;
7845;SDS011;3968;51.424;6.788;2022-09-27T10:11:25;5.20;;;2.67;;
7845;SDS011;3968;51.424;6.788;2022-09-27T10:14:16;3.23;;;2.43;;
7845;SDS011;3968;51.424;6.788;2022-09-27T10:16:53;4.67;;;2.60;;
7845;SDS011;3968;51.424;6.788;2022-09-27T10:19:27;4.53;;;2.27;;
7845;SDS011;3968;51.424;6.788;2022-09-27T10:21:57;4.03;;;2.43;;
7845;SDS011;3968;51.424;6.788;2022-09-27T10:24:51;27.13;;;4.57;;
7845;SDS011;3968;51.424;6.788;2022-09-27T10:27:21;2.23;;;2.00;;
7845;SDS011;3968;51.424;6.788;2022-09-27T10:29:55;3.53;;;2.30;;
7845;SDS011;3968;51.424;6.788;2022-09-27T10:32:26;10.30;;;2.50;;
7845;SDS011;3968;51.424;6.788;2022-09-27T10:34:55;4.53;;;2.43;;
7845;SDS011;3968;51.424;6.788;2022-09-27T10:37:41;4.17;;;2.53;;
7845;SDS011;3968;51.424;6.788;2022-09-27T10:42:53;26.83;;;3.53;;
7845;SDS011;3968;51.424;6.788;2022-09-27T10:45:29;44.13;;;4.63;;
7845;SDS011;3968;51.424;6.788;2022-09-27T10:48:00;2.67;;;1.50;;
7845;SDS011;3968;51.424;6.788;2022-09-27T10:50:27;9.50;;;1.90;;
7845;SDS011;3968;51.424;6.788;2022-09-27T10:53:02;7.43;;;1.87;;
7845;SDS011;3968;51.424;6.788;2022-09-27T10:55:47;3.40;;;2.13;;
7845;SDS011;3968;51.424;6.788;2022-09-27T10:58:19;3.53;;;2.00;;
7845;SDS011;3968;51.424;6.788;2022-09-27T11:01:01;2.43;;;1.77;;
7845;SDS011;3968;51.424;6.788;2022-09-27T11:03:30;3.33;;;1.90;;
7845;SDS011;3968;51.424;6.788;2022-09-27T11:05:59;3.77;;;2.00;;
7845;SDS011;3968;51.424;6.788;2022-09-27T11:08:42;4.77;;;2.60;;
7845;SDS011;3968;51.424;6.788;2022-09-27T11:13:37;5.23;;;2.70;;
7845;SDS011;3968;51.424;6.788;2022-09-27T11:16:07;3.60;;;2.80;;
7845;SDS011;3968;51.424;6.788;2022-09-27T11:18:58;4.83;;;2.63;;
7845;SDS011;3968;51.424;6.788;2022-09-27T11:27:56;4.37;;;2.80;;
7845;SDS011;3968;51.424;6.788;2022-09-27T11:33:30;7.17;;;2.93;;
7845;SDS011;3968;51.424;6.788;2022-09-27T11:36:22;7.23;;;2.83;;
7845;SDS011;3968;51.424;6.788;2022-09-27T11:47:03;4.70;;;3.00;;
7845;SDS011;3968;51.424;6.788;2022-09-27T11:49:41;5.60;;;3.37;;
7845;SDS011;3968;51.424;6.788;2022-09-27T11:54:48;16.20;;;8.77;;
7845;SDS011;3968;51.424;6.788;2022-09-27T12:00:23;14.13;;;8.63;;
7845;SDS011;3968;51.424;6.788;2022-09-27T12:05:59;13.27;;;8.17;;
7845;SDS011;3968;51.424;6.788;2022-09-27T12:11:28;7.57;;;5.10;;
7845;SDS011;3968;51.424;6.788;2022-09-27T12:14:00;10.40;;;5.20;;
7845;SDS011;3968;51.424;6.788;2022-09-27T12:16:30;7.83;;;4.23;;
7845;SDS011;3968;51.424;6.788;2022-09-27T12:18:57;9.53;;;4.97;;
7845;SDS011;3968;51.424;6.788;2022-09-27T12:21:25;10.37;;;5.87;;
7845;SDS011;3968;51.424;6.788;2022-09-27T12:23:54;9.43;;;5.67;;
7845;SDS011;3968;51.424;6.788;2022-09-27T12:31:45;11.83;;;7.57;;
7845;SDS011;3968;51.424;6.788;2022-09-27T12:34:38;8.33;;;4.93;;
7845;SDS011;3968;51.424;6.788;2022-09-27T12:37:26;11.13;;;6.40;;
7845;SDS011;3968;51.424;6.788;2022-09-27T12:45:25;6.00;;;2.97;;
7845;SDS011;3968;51.424;6.788;2022-09-27T12:48:17;6.77;;;3.53;;
7845;SDS011;3968;51.424;6.788;2022-09-27T12:50:46;13.57;;;4.97;;
7845;SDS011;3968;51.424;6.788;2022-09-27T12:53:26;9.97;;;3.90;;
7845;SDS011;3968;51.424;6.788;2022-09-27T12:56:08;23.63;;;5.33;;
7845;SDS011;3968;51.424;6.788;2022-09-27T13:12:19;6.37;;;4.70;;
7845;SDS011;3968;51.424;6.788;2022-09-27T13:22:52;7.17;;;3.57;;
7845;SDS011;3968;51.424;6.788;2022-09-27T13:31:05;12.33;;;5.20;;
7845;SDS011;3968;51.424;6.788;2022-09-27T13:36:24;5.57;;;2.80;;
7845;SDS011;3968;51.424;6.788;2022-09-27T13:44:11;47.40;;;6.07;;
7845;SDS011;3968;51.424;6.788;2022-09-27T13:46:48;2.13;;;1.50;;
7845;SDS011;3968;51.424;6.788;2022-09-27T13:49:36;1.93;;;1.10;;
7845;SDS011;3968;51.424;6.788;2022-09-27T13:52:04;2.57;;;1.63;;
7845;SDS011;3968;51.424;6.788;2022-09-27T13:54:48;2.97;;;1.80;;
7845;SDS011;3968;51.424;6.788;2022-09-27T14:05:38;42.80;;;5.57;;
7845;SDS011;3968;51.424;6.788;2022-09-27T14:08:06;14.57;;;3.93;;
7845;SDS011;3968;51.424;6.788;2022-09-27T14:10:44;37.53;;;5.90;;
7845;SDS011;3968;51.424;6.788;2022-09-27T14:13:10;5.53;;;1.77;;
7845;SDS011;3968;51.424;6.788;2022-09-27T14:15:44;3.27;;;1.73;;
7845;SDS011;3968;51.424;6.788;2022-09-27T14:18:11;6.33;;;3.87;;
7845;SDS011;3968;51.424;6.788;2022-09-27T14:20:41;3.77;;;1.87;;
7845;SDS011;3968;51.424;6.788;2022-09-27T14:23:30;1.50;;;1.00;;
7845;SDS011;3968;51.424;6.788;2022-09-27T14:25:55;2.87;;;1.00;;
7845;SDS011;3968;51.424;6.788;2022-09-27T14:31:05;4.10;;;1.33;;
7845;SDS011;3968;51.424;6.788;2022-09-27T14:33:38;3.30;;;1.20;;
7845;SDS011;3968;51.424;6.788;2022-09-27T14:36:12;6.30;;;2.00;;
7845;SDS011;3968;51.424;6.788;2022-09-27T14:39:14;2.23;;;1.57;;
7845;SDS011;3968;51.424;6.788;2022-09-27T14:41:44;8.97;;;1.90;;
7845;SDS011;3968;51.424;6.788;2022-09-27T14:44:14;3.67;;;1.60;;
7845;SDS011;3968;51.424;6.788;2022-09-27T14:46:42;41.57;;;6.00;;
7845;SDS011;3968;51.424;6.788;2022-09-27T14:51:45;2.77;;;1.50;;
7845;SDS011;3968;51.424;6.788;2022-09-27T14:54:20;2.40;;;1.37;;
7845;SDS011;3968;51.424;6.788;2022-09-27T14:56:51;5.13;;;1.47;;
7845;SDS011;3968;51.424;6.788;2022-09-27T14:59:23;3.43;;;1.30;;
7845;SDS011;3968;51.424;6.788;2022-09-27T15:01:55;6.07;;;1.77;;
7845;SDS011;3968;51.424;6.788;2022-09-27T15:04:24;5.67;;;1.23;;
7845;SDS011;3968;51.424;6.788;2022-09-27T15:06:52;2.47;;;1.20;;
7845;SDS011;3968;51.424;6.788;2022-09-27T15:09:19;3.30;;;1.83;;
7845;SDS011;3968;51.424;6.788;2022-09-27T15:11:52;4.97;;;1.50;;
7845;SDS011;3968;51.424;6.788;2022-09-27T15:14:24;5.13;;;1.57;;
7845;SDS011;3968;51.424;6.788;2022-09-27T15:16:53;4.47;;;1.53;;
7845;SDS011;3968;51.424;6.788;2022-09-27T15:19:26;3.03;;;1.07;;
7845;SDS011;3968;51.424;6.788;2022-09-27T15:21:53;2.67;;;1.13;;
7845;SDS011;3968;51.424;6.788;2022-09-27T15:24:38;3.67;;;1.23;;
7845;SDS011;3968;51.424;6.788;2022-09-27T15:27:18;3.60;;;1.43;;
7845;SDS011;3968;51.424;6.788;2022-09-27T15:29:50;3.73;;;1.40;;
7845;SDS011;3968;51.424;6.788;2022-09-27T15:32:19;3.43;;;1.53;;
7845;SDS011;3968;51.424;6.788;2022-09-27T15:34:47;11.13;;;2.17;;
7845;SDS011;3968;51.424;6.788;2022-09-27T15:37:24;2.00;;;1.50;;
7845;SDS011;3968;51.424;6.788;2022-09-27T15:45:29;57.53;;;5.17;;
7845;SDS011;3968;51.424;6.788;2022-09-27T15:48:18;2.47;;;1.50;;
7845;SDS011;3968;51.424;6.788;2022-09-27T15:50:44;3.13;;;1.63;;
7845;SDS011;3968;51.424;6.788;2022-09-27T15:53:11;3.33;;;1.50;;
7845;SDS011;3968;51.424;6.788;2022-09-27T15:55:57;5.20;;;1.50;;
7845;SDS011;3968;51.424;6.788;2022-09-27T15:58:22;2.50;;;1.60;;
7845;SDS011;3968;51.424;6.788;2022-09-27T16:00:50;2.17;;;1.30;;
7845;SDS011;3968;51.424;6.788;2022-09-27T16:03:20;4.40;;;1.60;;
7845;SDS011;3968;51.424;6.788;2022-09-27T16:05:46;2.80;;;1.80;;
7845;SDS011;3968;51.424;6.788;2022-09-27T16:08:12;2.77;;;1.67;;
7845;SDS011;3968;51.424;6.788;2022-09-27T16:10:38;4.30;;;1.87;;
7845;SDS011;3968;51.424;6.788;2022-09-27T16:13:08;2.00;;;1.63;;
7845;SDS011;3968;51.424;6.788;2022-09-27T16:15:33;3.37;;;1.93;;
7845;SDS011;3968;51.424;6.788;2022-09-27T16:18:00;3.80;;;1.90;;
7845;SDS011;3968;51.424;6.788;2022-09-27T16:20:26;4.17;;;2.57;;
7845;SDS011;3968;51.424;6.788;2022-09-27T16:22:52;3.47;;;2.03;;
7845;SDS011;3968;51.424;6.788;2022-09-27T16:25:19;4.13;;;2.00;;
7845;SDS011;3968;51.424;6.788;2022-09-27T16:27:46;3.50;;;2.10;;
7845;SDS011;3968;51.424;6.788;2022-09-27T16:30:12;2.70;;;2.10;;
7845;SDS011;3968;51.424;6.788;2022-09-27T16:32:39;5.97;;;2.33;;
7845;SDS011;3968;51.424;6.788;2022-09-27T16:35:05;4.13;;;2.60;;
7845;SDS011;3968;51.424;6.788;2022-09-27T16:37:32;6.93;;;3.00;;
7845;SDS011;3968;51.424;6.788;2022-09-27T16:39:58;4.77;;;2.77;;
7845;SDS011;3968;51.424;6.788;2022-09-27T16:42:24;5.83;;;3.00;;
7845;SDS011;3968;51.424;6.788;2022-09-27T16:44:51;4.73;;;3.00;;
7845;SDS011;3968;51.424;6.788;2022-09-27T16:47:17;7.23;;;3.40;;
7845;SDS011;3968;51.424;6.788;2022-09-27T16:49:43;5.00;;;2.63;;
7845;SDS011;3968;51.424;6.788;2022-09-27T16:52:28;5.23;;;2.50;;
7845;SDS011;3968;51.424;6.788;2022-09-27T16:54:58;4.30;;;2.40;;
7845;SDS011;3968;51.424;6.788;2022-09-27T16:57:24;3.93;;;2.33;;
7845;SDS011;3968;51.424;6.788;2022-09-27T16:59:54;5.40;;;2.37;;
7845;SDS011;3968;51.424;6.788;2022-09-27T17:02:22;3.43;;;2.10;;
7845;SDS011;3968;51.424;6.788;2022-09-27T17:04:48;3.13;;;1.90;;
7845;SDS011;3968;51.424;6.788;2022-09-27T17:07:15;4.57;;;1.90;;
7845;SDS011;3968;51.424;6.788;2022-09-27T17:09:41;3.93;;;1.93;;
7845;SDS011;3968;51.424;6.788;2022-09-27T17:12:06;3.20;;;2.13;;
7845;SDS011;3968;51.424;6.788;2022-09-27T17:14:32;4.07;;;1.87;;
7845;SDS011;3968;51.424;6.788;2022-09-27T17:17:01;4.77;;;2.10;;
7845;SDS011;3968;51.424;6.788;2022-09-27T17:19:26;3.90;;;2.20;;
7845;SDS011;3968;51.424;6.788;2022-09-27T17:21:52;7.37;;;2.33;;
7845;SDS011;3968;51.424;6.788;2022-09-27T17:24:19;8.53;;;3.13;;
7845;SDS011;3968;51.424;6.788;2022-09-27T17:26:46;4.83;;;2.43;;
7845;SDS011;3968;51.424;6.788;2022-09-27T17:29:12;5.10;;;2.40;;
7845;SDS011;3968;51.424;6.788;2022-09-27T17:31:39;4.17;;;2.00;;
7845;SDS011;3968;51.424;6.788;2022-09-27T17:34:06;6.03;;;2.33;;
7845;SDS011;3968;51.424;6.788;2022-09-27T17:36:36;4.50;;;2.50;;
7845;SDS011;3968;51.424;6.788;2022-09-27T17:39:04;4.13;;;2.20;;
7845;SDS011;3968;51.424;6.788;2022-09-27T17:41:29;11.67;;;2.57;;
7845;SDS011;3968;51.424;6.788;2022-09-27T17:43:57;4.27;;;2.30;;
7845;SDS011;3968;51.424;6.788;2022-09-27T17:46:25;5.97;;;2.70;;
7845;SDS011;3968;51.424;6.788;2022-09-27T17:48:53;4.87;;;2.73;;
7845;SDS011;3968;51.424;6.788;2022-09-27T17:51:38;7.13;;;3.50;;
7845;SDS011;3968;51.424;6.788;2022-09-27T17:54:05;3.73;;;2.80;;
7845;SDS011;3968;51.424;6.788;2022-09-27T17:56:34;5.87;;;3.40;;
7845;SDS011;3968;51.424;6.788;2022-09-27T17:59:01;4.90;;;3.27;;
7845;SDS011;3968;51.424;6.788;2022-09-27T18:01:28;11.80;;;3.73;;
7845;SDS011;3968;51.424;6.788;2022-09-27T18:03:54;3.83;;;2.40;;
7845;SDS011;3968;51.424;6.788;2022-09-27T18:06:21;5.33;;;2.67;;
7845;SDS011;3968;51.424;6.788;2022-09-27T18:08:47;6.67;;;2.17;;
7845;SDS011;3968;51.424;6.788;2022-09-27T18:11:15;6.90;;;2.50;;
7845;SDS011;3968;51.424;6.788;2022-09-27T18:13:43;5.77;;;2.20;;
7845;SDS011;3968;51.424;6.788;2022-09-27T18:16:12;7.13;;;2.63;;